Time;durP1;ratioP1;P1;durP2;ratioP2;P2;SDS_P1;SDS_P2;PMS_P1;PMS_P2;Temp;Humidity;BMP_temperature;BMP_pressure;BME280_temperature;BME280_humidity;BME280_pressure;Samples;Min_cycle;Max_cycle;Signal;HPM_P1;HPM_P2
2022/03/10 00:01:21;;;;;;;;;;;;;;;2.68;58.31;102329.88;5120361;27;19943;-80
2022/03/10 00:03:46;;;;;;;;;;;;;;;2.72;58.89;102331.00;5105227;27;20035;-80
2022/03/10 00:06:11;;;;;;;;;;;;;;;2.81;59.11;102336.84;5126656;27;20289;-80
2022/03/10 00:08:37;;;;;;;;;;;;;;;2.89;58.94;102334.94;5101409;27;19966;-80
2022/03/10 00:11:02;;;;;;;;;;;;;;;2.94;58.26;102339.63;5126052;27;20347;-80
2022/03/10 00:13:30;;;;;;;;;;;;;;;2.89;57.86;102334.94;5104267;27;20397;-80
2022/03/10 00:15:55;;;;;;;;;;;;;;;2.84;58.49;102346.38;5088914;28;19927;-80
2022/03/10 00:18:21;;;;;;;;;;;;;;;2.78;59.39;102341.66;5124898;27;19936;-80
2022/03/10 00:20:46;;;;;;;;;;;;;;;2.85;59.41;102343.06;5123327;27;19920;-80
2022/03/10 00:23:11;;;;;;;;;;;;;;;2.83;59.51;102340.41;5105036;27;20320;-81
2022/03/10 00:25:37;;;;;;;;;;;;;;;2.77;59.27;102332.28;5124054;27;19922;-80
2022/03/10 00:28:02;;;;;;;;;;;;;;;2.73;58.56;102330.25;5125020;27;19972;-80
2022/03/10 00:30:28;;;;;;;;;;;;;;;2.69;58.31;102334.19;5106215;27;19924;-81
2022/03/10 00:32:53;;;;;;;;;;;;;;;2.62;59.36;102334.44;5123539;27;19930;-81
2022/03/10 00:35:20;;;;;;;;;;;;;;;2.55;59.14;102342.31;5123415;27;19920;-81
2022/03/10 00:37:46;;;;;;;;;;;;;;;2.51;58.67;102336.84;5103268;27;19919;-81
2022/03/10 00:40:12;;;;;;;;;;;;;;;2.45;60.12;102344.84;5127993;27;20032;-81
2022/03/10 00:42:38;;;;;;;;;;;;;;;2.44;60.41;102340.53;5119106;27;19916;-81
2022/03/10 00:45:04;;;;;;;;;;;;;;;2.47;61.34;102345.84;5105725;27;19931;-80
2022/03/10 00:47:30;;;;;;;;;;;;;;;2.50;59.59;102341.03;5107080;27;19949;-80
2022/03/10 00:49:55;;;;;;;;;;;;;;;2.48;59.03;102345.06;5123125;27;19927;-80
2022/03/10 00:52:21;;;;;;;;;;;;;;;2.40;59.68;102346.09;5122923;27;19930;-81
2022/03/10 00:54:46;;;;;;;;;;;;;;;2.35;59.80;102352.41;5108965;27;20425;-80
2022/03/10 00:57:11;;;;;;;;;;;;;;;2.30;61.02;102353.69;5092958;27;20699;-80
2022/03/10 00:59:36;;;;;;;;;;;;;;;2.24;59.83;102351.50;5127517;27;19935;-80
2022/03/10 01:02:02;;;;;;;;;;;;;;;2.20;61.43;102351.13;5106826;27;20712;-80
2022/03/10 01:04:27;;;;;;;;;;;;;;;2.20;62.26;102358.75;5108121;27;19927;-80
2022/03/10 01:06:52;;;;;;;;;;;;;;;2.18;60.78;102355.16;5110484;27;19920;-80
2022/03/10 01:09:18;;;;;;;;;;;;;;;2.14;62.88;102346.44;5104036;27;19926;-80
2022/03/10 01:11:43;;;;;;;;;;;;;;;2.13;62.96;102350.63;5080072;27;19930;-80
2022/03/10 01:14:08;;;;;;;;;;;;;;;2.16;62.92;102355.06;5106335;27;19920;-79
2022/03/10 01:16:33;;;;;;;;;;;;;;;2.17;62.74;102355.94;5120397;27;19915;-80
2022/03/10 01:18:59;;;;;;;;;;;;;;;2.17;62.27;102351.75;5119954;27;19919;-80
2022/03/10 01:21:24;;;;;;;;;;;;;;;2.14;62.68;102347.31;5120456;27;20445;-80
2022/03/10 01:23:49;;;;;;;;;;;;;;;2.11;63.09;102346.16;5124379;27;19926;-80
2022/03/10 01:26:15;;;;;;;;;;;;;;;2.08;63.74;102344.25;5103619;28;20385;-80
2022/03/10 01:28:40;;;;;;;;;;;;;;;2.11;63.46;102347.03;5123378;27;19943;-80
2022/03/10 01:31:05;;;;;;;;;;;;;;;2.11;63.69;102351.22;5107213;28;19938;-80
2022/03/10 01:33:30;;;;;;;;;;;;;;;2.08;62.86;102343.38;5121405;27;19982;-79
2022/03/10 01:35:56;;;;;;;;;;;;;;;2.03;63.09;102342.97;5125004;28;19919;-80
2022/03/10 01:38:21;;;;;;;;;;;;;;;1.99;63.30;102345.97;5120758;28;20461;-80
2022/03/10 01:40:46;;;;;;;;;;;;;;;1.97;64.18;102339.91;5086756;28;19946;-80
2022/03/10 01:43:11;;;;;;;;;;;;;;;1.93;65.14;102340.38;5124210;28;19981;-80
2022/03/10 01:45:37;;;;;;;;;;;;;;;1.96;63.78;102345.75;5105426;28;19984;-79
2022/03/10 01:48:02;;;;;;;;;;;;;;;1.89;63.46;102348.50;5122058;28;19919;-80
2022/03/10 01:50:27;;;;;;;;;;;;;;;1.81;65.51;102345.28;5116651;28;19919;-79
2022/03/10 01:52:53;;;;;;;;;;;;;;;1.82;65.36;102346.16;5103733;28;19931;-80
2022/03/10 01:55:19;;;;;;;;;;;;;;;1.84;64.08;102347.22;5102173;28;20374;-79
2022/03/10 01:57:45;;;;;;;;;;;;;;;1.81;65.57;102339.31;5101825;28;20275;-80
2022/03/10 02:00:10;;;;;;;;;;;;;;;1.82;65.70;102342.03;5123190;28;19919;-79
2022/03/10 02:02:36;;;;;;;;;;;;;;;1.79;65.77;102339.19;5119548;27;20323;-79
2022/03/10 02:05:01;;;;;;;;;;;;;;;1.79;64.96;102344.28;5088413;28;19976;-80
2022/03/10 02:10:16;;;;;;;;;;;;;;;1.78;65.45;102341.63;5123740;28;19948;-80
2022/03/10 02:12:42;;;;;;;;;;;;;;;1.75;65.01;102341.34;5102138;28;19928;-81
2022/03/10 02:18:03;;;;;;;;;;;;;;;1.70;66.84;102340.03;5122442;28;19930;-80
2022/03/10 02:20:28;;;;;;;;;;;;;;;1.68;65.47;102334.84;5123445;28;20445;-81
2022/03/10 02:22:54;;;;;;;;;;;;;;;1.64;66.12;102335.34;5118381;28;20310;-80
2022/03/10 02:25:23;;;;;;;;;;;;;;;1.60;65.69;102339.25;5100002;28;19948;-80
2022/03/10 02:27:49;;;;;;;;;;;;;;;1.58;65.59;102330.63;5120739;27;19923;-80
2022/03/10 02:30:15;;;;;;;;;;;;;;;1.55;65.47;102332.88;5120125;28;20265;-81
2022/03/10 02:32:40;;;;;;;;;;;;;;;1.54;66.18;102330.22;5101078;28;19923;-80
2022/03/10 02:35:05;;;;;;;;;;;;;;;1.49;65.42;102328.94;5103717;28;19975;-80
2022/03/10 02:37:30;;;;;;;;;;;;;;;1.46;65.46;102329.56;5119789;27;19930;-80
2022/03/10 02:39:56;;;;;;;;;;;;;;;1.41;65.95;102333.31;5103726;27;19927;-80
2022/03/10 02:42:21;;;;;;;;;;;;;;;1.38;66.94;102332.16;5106655;27;20309;-80
2022/03/10 02:44:47;;;;;;;;;;;;;;;1.35;66.51;102335.31;5122859;27;19972;-79
2022/03/10 02:47:13;;;;;;;;;;;;;;;1.36;67.49;102326.97;5104804;27;19928;-80
2022/03/10 02:49:38;;;;;;;;;;;;;;;1.37;67.66;102327.84;5122591;27;19915;-80
2022/03/10 02:52:04;;;;;;;;;;;;;;;1.36;67.16;102332.03;5104000;27;19920;-80
2022/03/10 02:54:29;;;;;;;;;;;;;;;1.32;68.81;102335.94;5104802;27;19967;-80
2022/03/10 02:56:55;;;;;;;;;;;;;;;1.34;66.98;102333.56;5091380;27;19950;-80
2022/03/10 02:59:20;;;;;;;;;;;;;;;1.32;67.69;102329.97;5122995;27;19919;-80
2022/03/10 03:01:45;;;;;;;;;;;;;;;1.30;68.15;102327.31;5122001;27;19927;-79
2022/03/10 03:04:11;;;;;;;;;;;;;;;1.28;67.66;102323.75;5125253;27;20297;-79
2022/03/10 03:06:37;;;;;;;;;;;;;;;1.28;66.35;102333.00;5105645;27;19923;-78
2022/03/10 03:09:02;;;;;;;;;;;;;;;1.21;68.33;102334.06;5123786;27;20018;-79
2022/03/10 03:11:27;;;;;;;;;;;;;;;1.17;68.28;102331.16;5124155;27;20378;-79
2022/03/10 03:13:52;;;;;;;;;;;;;;;1.15;67.94;102340.25;5122892;27;19923;-79
2022/03/10 03:16:18;;;;;;;;;;;;;;;1.13;69.50;102335.06;5103148;27;20373;-79
2022/03/10 03:18:43;;;;;;;;;;;;;;;1.09;69.68;102345.66;5122369;27;19976;-79
2022/03/10 03:21:08;;;;;;;;;;;;;;;1.06;67.96;102340.31;5124137;27;19928;-79
2022/03/10 03:23:33;;;;;;;;;;;;;;;0.99;68.14;102343.06;5123723;27;19919;-79
2022/03/10 03:25:59;;;;;;;;;;;;;;;0.95;70.46;102344.41;5121007;27;19952;-79
2022/03/10 03:28:24;;;;;;;;;;;;;;;0.94;69.28;102350.25;5091034;27;19926;-80
2022/03/10 03:30:49;;;;;;;;;;;;;;;0.92;68.12;102346.69;5118396;27;20712;-79
2022/03/10 03:33:15;;;;;;;;;;;;;;;0.88;68.40;102358.94;5123097;27;19928;-79
2022/03/10 03:35:41;;;;;;;;;;;;;;;0.87;69.00;102352.09;5105406;27;19926;-79
2022/03/10 03:38:06;;;;;;;;;;;;;;;0.86;69.56;102353.75;5106528;27;19922;-79
2022/03/10 03:40:31;;;;;;;;;;;;;;;0.84;71.35;102346.75;5122140;27;19927;-79
2022/03/10 03:42:57;;;;;;;;;;;;;;;0.87;70.20;102357.16;5104227;27;20370;-79
2022/03/10 03:45:22;;;;;;;;;;;;;;;0.87;70.74;102357.16;5123695;27;19919;-79
2022/03/10 03:47:48;;;;;;;;;;;;;;;0.86;70.84;102346.16;5089066;27;19919;-79
2022/03/10 03:50:13;;;;;;;;;;;;;;;0.86;70.15;102348.69;5104128;27;19923;-79
2022/03/10 03:52:38;;;;;;;;;;;;;;;0.80;70.44;102355.72;5122504;27;19938;-79
2022/03/10 03:55:04;;;;;;;;;;;;;;;0.75;70.16;102362.88;5123151;27;19969;-79
2022/03/10 03:57:29;;;;;;;;;;;;;;;0.67;69.29;102368.91;5118701;27;19923;-79
2022/03/10 03:59:54;;;;;;;;;;;;;;;0.59;70.50;102374.00;5104058;27;20304;-79
2022/03/10 04:02:19;;;;;;;;;;;;;;;0.56;71.07;102373.72;5125149;27;19951;-80
2022/03/10 04:04:45;;;;;;;;;;;;;;;0.52;71.21;102380.13;5122959;27;19916;-79
2022/03/10 04:07:10;;;;;;;;;;;;;;;0.51;72.14;102378.34;5119858;27;19920;-80
2022/03/10 04:09:35;;;;;;;;;;;;;;;0.56;71.01;102378.78;5124954;27;19919;-79
2022/03/10 04:12:02;;;;;;;;;;;;;;;0.53;70.54;102376.84;5124546;27;19923;-79
2022/03/10 04:14:27;;;;;;;;;;;;;;;0.48;71.39;102373.88;5125423;27;19972;-79
2022/03/10 04:16:52;;;;;;;;;;;;;;;0.48;70.94;102373.00;5126097;27;19927;-78
2022/03/10 04:19:18;;;;;;;;;;;;;;;0.48;72.47;102371.34;5125874;27;19962;-79
2022/03/10 04:21:43;;;;;;;;;;;;;;;0.51;72.39;102374.19;5121865;27;20331;-79
2022/03/10 04:24:08;;;;;;;;;;;;;;;0.51;72.33;102371.66;5123796;27;19930;-79
2022/03/10 04:26:34;;;;;;;;;;;;;;;0.48;72.89;102373.88;5120397;27;20334;-80
2022/03/10 04:28:59;;;;;;;;;;;;;;;0.47;73.11;102371.22;5124956;27;19949;-79
2022/03/10 04:31:24;;;;;;;;;;;;;;;0.42;70.97;102375.84;5121744;27;19923;-79
2022/03/10 04:33:50;;;;;;;;;;;;;;;0.36;70.83;102374.41;5105422;27;20339;-79
2022/03/10 04:36:15;;;;;;;;;;;;;;;0.31;71.75;102381.59;5123394;27;19978;-79
2022/03/10 04:38:40;;;;;;;;;;;;;;;0.28;71.82;102372.81;5121220;27;19923;-79
2022/03/10 04:41:06;;;;;;;;;;;;;;;0.30;73.28;102374.72;5105731;27;19920;-79
2022/03/10 04:43:31;;;;;;;;;;;;;;;0.33;73.03;102369.94;5121588;27;19927;-79
2022/03/10 04:45:59;;;;;;;;;;;;;;;0.38;73.27;102372.91;5104726;27;19926;-79
2022/03/10 04:48:25;;;;;;;;;;;;;;;0.38;72.29;102375.44;5105470;27;19919;-79
2022/03/10 04:50:50;;;;;;;;;;;;;;;0.30;72.83;102369.66;5119039;27;20358;-79
2022/03/10 04:53:15;;;;;;;;;;;;;;;0.26;72.48;102377.72;5119562;27;19919;-79
2022/03/10 04:55:41;;;;;;;;;;;;;;;0.20;70.88;102377.16;5100771;27;19930;-80
2022/03/10 04:58:07;;;;;;;;;;;;;;;0.11;71.51;102381.34;5124860;27;20327;-80
2022/03/10 05:00:33;;;;;;;;;;;;;;;0.03;70.62;102377.22;5121106;27;19919;-80
2022/03/10 05:02:58;;;;;;;;;;;;;;;-0.03;71.66;102387.63;5089350;27;19981;-80
2022/03/10 05:05:23;;;;;;;;;;;;;;;-0.09;71.92;102375.28;5103282;27;20290;-78
2022/03/10 05:07:49;;;;;;;;;;;;;;;-0.15;71.63;102379.78;5085461;27;19949;-79
2022/03/10 05:10:14;;;;;;;;;;;;;;;-0.17;72.14;102382.91;5121513;27;19923;-79
2022/03/10 05:12:44;;;;;;;;;;;;;;;-0.15;73.41;102387.34;5119260;27;20384;-78
2022/03/10 05:15:09;;;;;;;;;;;;;;;-0.13;72.45;102384.97;5102723;27;19915;-79
2022/03/10 05:17:34;;;;;;;;;;;;;;;-0.13;75.02;102380.78;5120181;27;19953;-79
2022/03/10 05:19:59;;;;;;;;;;;;;;;-0.08;73.01;102387.19;5122096;27;19972;-79
2022/03/10 05:22:25;;;;;;;;;;;;;;;-0.07;74.54;102385.53;5123079;27;20014;-79
2022/03/10 05:24:50;;;;;;;;;;;;;;;-0.02;74.36;102380.19;5119099;27;20389;-78
2022/03/10 05:27:15;;;;;;;;;;;;;;;-0.01;73.59;102384.50;5122272;27;20289;-79
2022/03/10 05:29:40;;;;;;;;;;;;;;;0.00;73.96;102393.00;5105769;28;19923;-78
2022/03/10 05:32:10;;;;;;;;;;;;;;;-0.05;72.96;102382.44;5122975;27;19959;-79
2022/03/10 05:34:36;;;;;;;;;;;;;;;-0.11;72.95;102389.44;5104885;28;19915;-79
2022/03/10 05:37:01;;;;;;;;;;;;;;;-0.14;75.02;102383.19;5117518;28;19923;-79
2022/03/10 05:39:26;;;;;;;;;;;;;;;-0.09;74.68;102389.56;5122418;28;20411;-79
2022/03/10 05:41:52;;;;;;;;;;;;;;;-0.07;74.94;102385.53;5087845;28;19930;-79
2022/03/10 05:44:17;;;;;;;;;;;;;;;-0.07;73.10;102383.91;5086581;28;20037;-79
2022/03/10 05:46:42;;;;;;;;;;;;;;;-0.12;73.62;102390.19;5101014;28;20327;-79
2022/03/10 05:49:08;;;;;;;;;;;;;;;-0.15;73.62;102389.00;5116880;27;19923;-79
2022/03/10 05:51:35;;;;;;;;;;;;;;;-0.16;74.09;102390.63;5104068;28;19919;-79
2022/03/10 05:54:00;;;;;;;;;;;;;;;-0.16;74.84;102385.56;5119941;28;20358;-79
2022/03/10 05:56:25;;;;;;;;;;;;;;;-0.13;74.47;102382.44;5122310;28;20207;-80
2022/03/10 05:58:50;;;;;;;;;;;;;;;-0.15;74.24;102381.41;5098825;28;19927;-79
2022/03/10 06:01:16;;;;;;;;;;;;;;;-0.15;73.62;102383.94;5124283;28;19926;-79
2022/03/10 06:03:41;;;;;;;;;;;;;;;-0.17;75.43;102377.84;5105887;27;20417;-79
2022/03/10 06:06:06;;;;;;;;;;;;;;;-0.13;73.67;102373.22;5100564;28;19922;-79
2022/03/10 06:08:32;;;;;;;;;;;;;;;-0.14;74.34;102376.50;5086238;28;19987;-79
2022/03/10 06:10:57;;;;;;;;;;;;;;;-0.12;73.98;102377.56;5121631;27;19922;-79
2022/03/10 06:13:22;;;;;;;;;;;;;;;-0.09;73.62;102380.34;5118043;27;19980;-79
2022/03/10 06:15:47;;;;;;;;;;;;;;;-0.04;73.22;102385.84;5126051;27;19935;-79
2022/03/10 06:18:13;;;;;;;;;;;;;;;0.00;73.89;102380.34;5110786;27;19920;-79
2022/03/10 06:20:38;;;;;;;;;;;;;;;0.06;73.25;102385.06;5124086;27;20373;-79
2022/03/10 06:23:03;;;;;;;;;;;;;;;0.06;73.26;102385.06;5126372;27;19972;-80
2022/03/10 06:25:29;;;;;;;;;;;;;;;0.10;73.00;102388.03;5128069;27;20405;-79
2022/03/10 06:27:54;;;;;;;;;;;;;;;0.14;72.89;102389.22;5124682;27;19926;-79
2022/03/10 06:30:19;;;;;;;;;;;;;;;0.14;73.16;102394.28;5106712;27;20391;-79
2022/03/10 06:32:45;;;;;;;;;;;;;;;0.23;73.66;102397.66;5104275;28;19942;-80
2022/03/10 06:35:11;;;;;;;;;;;;;;;0.34;71.83;102397.03;5099067;28;19920;-79
2022/03/10 06:37:36;;;;;;;;;;;;;;;0.51;73.56;102396.97;5106414;28;19916;-80
2022/03/10 06:40:02;;;;;;;;;;;;;;;1.02;73.00;102394.88;5103267;28;20314;-79
2022/03/10 06:42:30;;;;;;;;;;;;;;;1.85;71.19;102399.72;5103807;28;20707;-80
2022/03/10 06:44:55;;;;;;;;;;;;;;;2.67;67.50;102398.31;5105184;28;19923;-79
2022/03/10 06:47:20;;;;;;;;;;;;;;;3.39;64.17;102394.09;5104658;28;19915;-79
2022/03/10 06:49:45;;;;;;;;;;;;;;;3.89;62.87;102393.06;5103396;28;20014;-79
2022/03/10 06:52:11;;;;;;;;;;;;;;;4.43;60.14;102387.06;5103811;28;21728;-79
2022/03/10 06:54:37;;;;;;;;;;;;;;;4.85;60.00;102397.09;5104981;28;19919;-79
2022/03/10 06:57:02;;;;;;;;;;;;;;;5.41;58.02;102391.91;5102712;28;19938;-79
2022/03/10 06:59:28;;;;;;;;;;;;;;;6.02;53.15;102396.34;5103505;28;20046;-80
2022/03/10 07:01:53;;;;;;;;;;;;;;;6.43;51.63;102404.31;5098701;28;20388;-80
2022/03/10 07:04:18;;;;;;;;;;;;;;;6.83;51.05;102399.38;5101516;28;19930;-80
2022/03/10 07:06:44;;;;;;;;;;;;;;;7.25;51.17;102392.00;5104711;28;20024;-80
2022/03/10 07:09:09;;;;;;;;;;;;;;;7.78;51.51;102396.28;5104370;28;19923;-80
2022/03/10 07:11:34;;;;;;;;;;;;;;;8.25;48.15;102400.91;5101475;28;19915;-80
2022/03/10 07:13:59;;;;;;;;;;;;;;;8.56;46.08;102398.63;5101052;28;20301;-80
2022/03/10 07:16:25;;;;;;;;;;;;;;;8.70;46.17;102391.75;5101268;28;19972;-80
2022/03/10 07:18:51;;;;;;;;;;;;;;;8.96;44.87;102385.59;5102832;28;19974;-80
2022/03/10 07:21:17;;;;;;;;;;;;;;;9.36;44.38;102386.22;5103218;28;19923;-78
2022/03/10 07:23:43;;;;;;;;;;;;;;;9.72;44.47;102396.81;5103957;28;20385;-81
2022/03/10 07:26:10;;;;;;;;;;;;;;;10.24;41.99;102387.72;5104567;28;19916;-80
2022/03/10 07:28:36;;;;;;;;;;;;;;;10.87;41.56;102383.31;5100549;28;19919;-79
2022/03/10 07:31:01;;;;;;;;;;;;;;;11.47;41.48;102387.16;5109509;27;20419;-80
2022/03/10 07:33:27;;;;;;;;;;;;;;;11.74;37.42;102385.91;5119316;27;19967;-80
2022/03/10 07:35:52;;;;;;;;;;;;;;;12.21;36.70;102379.53;5125637;27;19923;-80
2022/03/10 07:38:17;;;;;;;;;;;;;;;12.40;37.03;102381.22;5121251;27;19930;-80
2022/03/10 07:40:43;;;;;;;;;;;;;;;12.50;35.68;102382.53;5109619;27;19927;-80
2022/03/10 07:43:08;;;;;;;;;;;;;;;12.49;36.09;102384.22;5125644;27;20026;-78
2022/03/10 07:45:33;;;;;;;;;;;;;;;12.83;36.35;102381.41;5124278;27;19927;-76
2022/03/10 07:47:58;;;;;;;;;;;;;;;13.31;35.43;102384.31;5126505;27;20373;-79
2022/03/10 07:50:24;;;;;;;;;;;;;;;13.60;35.81;102382.91;5125570;27;19919;-79
2022/03/10 07:52:49;;;;;;;;;;;;;;;13.81;33.25;102388.03;5120823;27;19923;-79
2022/03/10 07:55:14;;;;;;;;;;;;;;;14.04;33.63;102381.19;5126224;27;19931;-79
2022/03/10 07:57:41;;;;;;;;;;;;;;;14.57;33.04;102373.66;5132196;27;19922;-80
2022/03/10 08:00:06;;;;;;;;;;;;;;;14.64;33.99;102375.66;5143260;27;19958;-80
2022/03/10 08:02:32;;;;;;;;;;;;;;;14.32;32.53;102382.19;5122604;27;19927;-80
2022/03/10 08:04:57;;;;;;;;;;;;;;;14.35;34.48;102385.78;5122379;27;19942;-79
2022/03/10 08:07:22;;;;;;;;;;;;;;;15.17;32.29;102390.44;5139414;27;19923;-79
2022/03/10 08:09:47;;;;;;;;;;;;;;;15.54;31.69;102383.88;5121308;27;19920;-79
2022/03/10 08:12:13;;;;;;;;;;;;;;;15.86;29.94;102384.91;5137675;27;19919;-80
2022/03/10 08:14:38;;;;;;;;;;;;;;;15.79;32.07;102385.56;5131209;27;19936;-77
2022/03/10 08:17:04;;;;;;;;;;;;;;;16.30;32.50;102388.81;5104653;27;20005;-77
2022/03/10 08:19:29;;;;;;;;;;;;;;;16.46;30.00;102384.94;5119496;27;20033;-77
2022/03/10 08:21:54;;;;;;;;;;;;;;;16.78;30.42;102384.97;5124213;27;20002;-77
2022/03/10 08:24:19;;;;;;;;;;;;;;;17.51;29.65;102391.16;5102181;27;20332;-77
2022/03/10 08:26:45;;;;;;;;;;;;;;;17.95;29.69;102382.66;5125269;27;19919;-73
2022/03/10 08:29:10;;;;;;;;;;;;;;;18.27;26.99;102389.41;5120731;27;19969;-80
2022/03/10 08:31:35;;;;;;;;;;;;;;;18.06;28.16;102382.88;5121646;27;20541;-78
2022/03/10 08:34:01;;;;;;;;;;;;;;;18.09;29.02;102375.16;5121706;27;19924;-79
2022/03/10 08:36:26;;;;;;;;;;;;;;;18.32;29.98;102378.25;5117400;27;19920;-78
2022/03/10 08:38:51;;;;;;;;;;;;;;;18.46;27.21;102375.91;5121071;27;19984;-79
2022/03/10 08:41:17;;;;;;;;;;;;;;;18.69;27.66;102376.38;5103932;27;19927;-79
2022/03/10 08:43:42;;;;;;;;;;;;;;;19.09;26.75;102370.13;5124232;27;19923;-79
2022/03/10 08:46:07;;;;;;;;;;;;;;;19.52;28.10;102365.59;5103341;27;21070;-79
2022/03/10 08:48:34;;;;;;;;;;;;;;;19.95;27.62;102363.63;5107926;27;20294;-79
2022/03/10 08:51:00;;;;;;;;;;;;;;;20.45;26.34;102366.00;5117974;27;19915;-79
2022/03/10 08:53:25;;;;;;;;;;;;;;;20.93;23.83;102364.75;5121234;27;19920;-80
2022/03/10 08:55:51;;;;;;;;;;;;;;;20.69;26.23;102357.53;5118086;27;20022;-78
2022/03/10 08:58:16;;;;;;;;;;;;;;;20.65;25.72;102359.28;5124863;27;19915;-78
2022/03/10 09:00:43;;;;;;;;;;;;;;;20.53;25.28;102356.53;5103506;27;19969;-78
2022/03/10 09:03:08;;;;;;;;;;;;;;;20.64;24.83;102356.66;5121670;27;19920;-78
2022/03/10 09:05:34;;;;;;;;;;;;;;;20.71;24.98;102350.63;5119980;27;19927;-79
2022/03/10 09:07:59;;;;;;;;;;;;;;;20.63;24.62;102350.56;5090720;27;19926;-79
2022/03/10 09:10:25;;;;;;;;;;;;;;;20.73;25.19;102349.75;5120242;27;19927;-79
2022/03/10 09:12:51;;;;;;;;;;;;;;;21.36;26.30;102353.81;5114817;27;19920;-79
2022/03/10 09:15:17;;;;;;;;;;;;;;;22.65;23.10;102343.94;5118322;27;20003;-79
2022/03/10 09:17:42;;;;;;;;;;;;;;;22.70;22.39;102347.44;5098775;27;19967;-79
2022/03/10 09:20:08;;;;;;;;;;;;;;;22.79;22.64;102344.81;5124551;27;19965;-79
2022/03/10 09:22:33;;;;;;;;;;;;;;;23.08;21.88;102338.75;5123395;27;20416;-79
2022/03/10 09:25:00;;;;;;;;;;;;;;;23.06;22.54;102332.63;5099354;28;19919;-79
2022/03/10 09:27:25;;;;;;;;;;;;;;;23.53;21.72;102327.28;5102482;27;20354;-79
2022/03/10 09:29:50;;;;;;;;;;;;;;;24.04;21.12;102331.53;5121929;27;20042;-79
2022/03/10 09:32:17;;;;;;;;;;;;;;;24.40;23.19;102331.38;5127147;27;20086;-78
2022/03/10 09:34:42;;;;;;;;;;;;;;;25.27;21.95;102326.31;5120291;27;19950;-79
2022/03/10 09:37:07;;;;;;;;;;;;;;;25.68;21.42;102315.34;5124241;28;20362;-79
2022/03/10 09:39:33;;;;;;;;;;;;;;;26.56;18.97;102316.84;5100137;28;20002;-79
2022/03/10 09:41:59;;;;;;;;;;;;;;;26.40;19.51;102313.56;5123447;28;20375;-78
2022/03/10 09:44:26;;;;;;;;;;;;;;;26.29;20.00;102315.47;5123264;28;19946;-78
2022/03/10 09:46:52;;;;;;;;;;;;;;;26.26;20.20;102311.09;5117997;27;19958;-79
2022/03/10 09:49:21;;;;;;;;;;;;;;;26.54;19.97;102310.72;5107869;27;20331;-79
2022/03/10 09:51:48;;;;;;;;;;;;;;;26.95;18.44;102304.78;5127763;27;20427;-78
2022/03/10 09:54:13;;;;;;;;;;;;;;;26.12;19.56;102299.88;5124909;27;19963;-78
2022/03/10 09:56:40;;;;;;;;;;;;;;;26.16;19.85;102305.09;5136558;27;19926;-78
2022/03/10 09:59:09;;;;;;;;;;;;;;;26.87;17.77;102296.09;5137292;27;19919;-79
2022/03/10 10:01:34;;;;;;;;;;;;;;;26.38;18.58;102308.28;5127345;27;19951;-79
2022/03/10 10:03:59;;;;;;;;;;;;;;;25.80;19.80;102303.81;5138076;27;19945;-77
2022/03/10 10:06:24;;;;;;;;;;;;;;;25.74;18.85;102303.03;5113501;27;19915;-78
2022/03/10 10:08:54;;;;;;;;;;;;;;;25.88;19.45;102299.31;5112189;27;19926;-78
2022/03/10 10:11:28;;;;;;;;;;;;;;;26.29;19.66;102297.88;5138556;27;20025;-78
2022/03/10 10:13:54;;;;;;;;;;;;;;;26.70;19.66;102299.91;5127372;27;19930;-78
2022/03/10 10:16:19;;;;;;;;;;;;;;;26.87;19.68;102296.97;5115695;27;19923;-77
2022/03/10 10:18:44;;;;;;;;;;;;;;;27.32;19.54;102297.09;5132542;27;19923;-77
2022/03/10 10:21:12;;;;;;;;;;;;;;;28.04;18.52;102285.06;5129741;27;19924;-77
2022/03/10 10:23:38;;;;;;;;;;;;;;;28.59;16.97;102286.44;5123099;27;19915;-77
2022/03/10 10:26:08;;;;;;;;;;;;;;;28.64;17.65;102289.84;5092357;27;20071;-77
2022/03/10 10:28:34;;;;;;;;;;;;;;;28.49;16.68;102283.13;5116164;27;20511;-79
2022/03/10 10:31:01;;;;;;;;;;;;;;;27.99;17.28;102284.28;5122112;27;19923;-77
2022/03/10 10:33:28;;;;;;;;;;;;;;;27.43;18.02;102273.09;5109088;27;19990;-78
2022/03/10 10:36:13;;;;;;;;;;;;;;;27.09;17.92;102284.31;5127399;27;19993;-79
2022/03/10 10:38:39;;;;;;;;;;;;;;;26.84;18.75;102280.34;5117010;27;19922;-79
2022/03/10 10:41:24;;;;;;;;;;;;;;;26.55;18.31;102271.13;5146116;27;19919;-79
2022/03/10 10:43:51;;;;;;;;;;;;;;;26.39;18.45;102266.94;5122557;27;19970;-79
2022/03/10 10:46:20;;;;;;;;;;;;;;;25.87;20.14;102271.22;5148431;27;19922;-78
2022/03/10 10:48:47;;;;;;;;;;;;;;;26.92;18.84;102275.78;5114088;27;19926;-76
2022/03/10 10:51:13;;;;;;;;;;;;;;;27.42;18.90;102266.06;5100855;27;19931;-79
2022/03/10 10:53:39;;;;;;;;;;;;;;;28.06;17.75;102272.66;5095755;27;19931;-79
2022/03/10 10:56:05;;;;;;;;;;;;;;;28.15;18.30;102274.22;5129386;27;19919;-80
2022/03/10 10:58:30;;;;;;;;;;;;;;;28.44;18.00;102268.28;5132099;27;19995;-80
2022/03/10 11:00:59;;;;;;;;;;;;;;;28.85;17.33;102268.09;5136626;27;19983;-79
2022/03/10 11:03:25;;;;;;;;;;;;;;;29.30;17.58;102258.97;5104551;27;19923;-79
2022/03/10 11:05:51;;;;;;;;;;;;;;;29.56;16.64;102259.16;5114957;27;19927;-80
2022/03/10 11:08:24;;;;;;;;;;;;;;;29.62;17.44;102252.78;5132330;27;19920;-80
2022/03/10 11:10:50;;;;;;;;;;;;;;;29.31;17.39;102251.00;5132499;27;19951;-79
2022/03/10 11:13:15;;;;;;;;;;;;;;;29.57;18.00;102249.41;5120776;27;20294;-80
2022/03/10 11:15:41;;;;;;;;;;;;;;;29.83;17.62;102249.47;5140171;27;19923;-80
2022/03/10 11:18:09;;;;;;;;;;;;;;;29.55;17.71;102246.81;5122256;27;19926;-78
2022/03/10 11:20:35;;;;;;;;;;;;;;;29.17;17.07;102241.69;5121384;27;19941;-80
2022/03/10 11:23:15;;;;;;;;;;;;;;;28.56;17.32;102245.03;5120631;27;19916;-79
2022/03/10 11:26:03;;;;;;;;;;;;;;;27.45;19.01;102243.09;5140825;27;20003;-79
2022/03/10 11:28:30;;;;;;;;;;;;;;;28.34;17.97;102242.97;5133139;27;20047;-80
2022/03/10 11:30:59;;;;;;;;;;;;;;;27.99;17.72;102247.28;5135633;27;20381;-80
2022/03/10 11:33:32;;;;;;;;;;;;;;;27.48;18.48;102245.69;5136835;27;19979;-78
2022/03/10 11:35:58;;;;;;;;;;;;;;;27.17;19.14;102240.13;5112577;27;19995;-77
2022/03/10 11:38:31;;;;;;;;;;;;;;;27.39;18.39;102239.72;5107939;27;19945;-79
2022/03/10 11:40:56;;;;;;;;;;;;;;;26.91;19.03;102235.31;5127782;27;20014;-78
2022/03/10 11:43:28;;;;;;;;;;;;;;;27.12;18.76;102225.28;5102977;27;20010;-78
2022/03/10 11:46:12;;;;;;;;;;;;;;;27.05;19.67;102220.97;5106166;27;19919;-78
2022/03/10 11:48:38;;;;;;;;;;;;;;;27.61;18.82;102219.03;5126943;27;19915;-78
2022/03/10 11:51:11;;;;;;;;;;;;;;;27.97;18.04;102218.22;5130725;27;19923;-77
2022/03/10 11:53:52;;;;;;;;;;;;;;;28.39;18.02;102218.09;5111276;27;20556;-77
2022/03/10 11:56:17;;;;;;;;;;;;;;;27.39;18.89;102214.16;5126749;27;19923;-76
2022/03/10 11:58:43;;;;;;;;;;;;;;;26.25;19.92;102208.28;5112620;27;19923;-76
2022/03/10 12:01:17;;;;;;;;;;;;;;;26.11;20.14;102209.38;5122259;27;19929;-77
2022/03/10 12:03:46;;;;;;;;;;;;;;;26.25;19.95;102197.75;5125734;27;19915;-77
2022/03/10 12:06:17;;;;;;;;;;;;;;;26.49;20.32;102197.38;5125476;27;20026;-77
2022/03/10 12:09:00;;;;;;;;;;;;;;;27.47;19.46;102201.66;5128842;27;19973;-78
2022/03/10 12:11:45;;;;;;;;;;;;;;;27.54;19.56;102189.19;5118070;27;20015;-75
2022/03/10 12:14:31;;;;;;;;;;;;;;;27.74;19.45;102194.97;5126941;27;19926;-76
2022/03/10 12:16:56;;;;;;;;;;;;;;;28.49;18.84;102194.94;5123955;27;19915;-76
2022/03/10 12:19:42;;;;;;;;;;;;;;;29.22;18.16;102187.66;5106219;27;19919;-77
2022/03/10 12:22:09;;;;;;;;;;;;;;;28.58;17.95;102173.56;5070686;27;19915;-76
2022/03/10 12:24:35;;;;;;;;;;;;;;;28.42;18.67;102169.56;5126897;27;20384;-76
2022/03/10 12:27:01;;;;;;;;;;;;;;;29.19;18.34;102174.53;5124042;27;19919;-76
2022/03/10 12:29:30;;;;;;;;;;;;;;;29.82;17.38;102164.69;5123808;27;19922;-77
2022/03/10 12:32:03;;;;;;;;;;;;;;;29.51;17.63;102162.09;5124330;27;19919;-76
2022/03/10 12:34:28;;;;;;;;;;;;;;;28.61;18.50;102154.94;5119734;27;22907;-76
2022/03/10 12:36:54;;;;;;;;;;;;;;;28.52;18.13;102145.47;5090739;27;19930;-75
2022/03/10 12:39:25;;;;;;;;;;;;;;;28.42;18.09;102140.47;5105260;27;19945;-77
2022/03/10 12:42:01;;;;;;;;;;;;;;;27.64;18.78;102145.81;5102681;27;20000;-77